Time;durP1;ratioP1;P1;durP2;ratioP2;P2;SDS_P1;SDS_P2;PMS_P1;PMS_P2;Temp;Humidity;BMP_temperature;BMP_pressure;BME280_temperature;BME280_humidity;BME280_pressure;Samples;Min_cycle;Max_cycle;Signal;HPM_P1;HPM_P2
2024/01/30 00:00:00;;;;;;;;;24.00;24.00;;;;;16.11;100.00;102086.88;2095785;28;45897;-69
2024/01/30 00:01:00;;;;;;;;;24.75;23.00;;;;;16.13;100.00;102085.97;2096024;28;46039;-69
2024/01/30 00:02:01;;;;;;;;;24.00;24.00;;;;;16.11;100.00;102084.22;2096359;28;45527;-69
2024/01/30 00:03:01;;;;;;;;;21.75;21.75;;;;;16.10;100.00;102088.69;2095644;28;46391;-70
2024/01/30 00:04:02;;;;;;;;;26.75;25.75;;;;;16.11;100.00;102084.22;2095893;28;46236;-71
2024/01/30 00:05:03;;;;;;;;;23.60;23.20;;;;;16.12;100.00;102080.59;2096080;28;46513;-69
2024/01/30 00:06:04;;;;;;;;;25.60;25.60;;;;;16.09;100.00;102084.25;2095851;28;46796;-68
2024/01/30 00:07:04;;;;;;;;;25.25;21.25;;;;;16.10;100.00;102079.78;2095492;28;46169;-69
2024/01/30 00:08:05;;;;;;;;;24.25;23.75;;;;;16.10;100.00;102082.44;2095710;28;46197;-69
2024/01/30 00:09:05;;;;;;;;;20.50;19.75;;;;;16.14;100.00;102086.84;2095476;28;46686;-70
2024/01/30 00:10:06;;;;;;;;;23.00;23.00;;;;;16.13;100.00;102079.69;2095760;28;47607;-69
2024/01/30 00:11:07;;;;;;;;;27.00;27.00;;;;;16.12;100.00;102081.50;2095342;28;46375;-69
2024/01/30 00:12:07;;;;;;;;;24.40;23.20;;;;;16.15;100.00;102078.78;2093687;28;46657;-69
2024/01/30 00:13:08;;;;;;;;;25.25;23.75;;;;;16.14;100.00;102077.00;2095939;28;46350;-69
2024/01/30 00:14:08;;;;;;;;;23.25;23.25;;;;;16.17;100.00;102082.28;2095986;28;46590;-69
2024/01/30 00:15:09;;;;;;;;;26.25;24.50;;;;;16.09;100.00;102072.66;2094228;28;46834;-68
2024/01/30 00:16:23;;;;;;;;;26.00;26.00;;;;;16.20;100.00;102081.31;2094887;28;46647;-69
2024/01/30 00:17:26;;;;;;;;;22.60;21.80;;;;;16.19;100.00;102079.56;2095188;28;46418;-69
2024/01/30 00:18:26;;;;;;;;;24.00;21.60;;;;;16.19;100.00;102083.13;2095242;28;46570;-68
2024/01/30 00:19:26;;;;;;;;;29.00;25.75;;;;;16.18;100.00;102086.72;2095147;28;46299;-69
2024/01/30 00:20:26;;;;;;;;;25.50;25.50;;;;;16.18;100.00;102083.16;2095993;28;46186;-68
2024/01/30 00:21:27;;;;;;;;;25.50;25.50;;;;;16.20;100.00;102078.66;2095545;28;46868;-68
2024/01/30 00:22:30;;;;;;;;;25.25;24.75;;;;;16.18;100.00;102080.50;2095881;28;47046;-68
2024/01/30 00:23:30;;;;;;;;;23.20;21.80;;;;;16.21;100.00;102076.84;2094709;28;46401;-69
2024/01/30 00:24:30;;;;;;;;;25.00;25.00;;;;;16.14;100.00;102082.38;2094883;28;46815;-68
2024/01/30 00:25:33;;;;;;;;;20.00;20.00;;;;;16.08;100.00;102084.28;2095779;28;46151;-68
2024/01/30 00:26:33;;;;;;;;;26.60;25.80;;;;;16.07;100.00;102075.38;2095875;28;45177;-69
2024/01/30 00:27:34;;;;;;;;;26.75;24.75;;;;;16.13;100.00;102074.34;2095566;28;46950;-68
2024/01/30 00:28:34;;;;;;;;;27.50;24.75;;;;;16.15;100.00;102084.13;2095421;28;46531;-69
2024/01/30 00:29:34;;;;;;;;;22.75;22.75;;;;;16.15;100.00;102083.25;2095801;28;46237;-70
2024/01/30 00:30:34;;;;;;;;;22.50;22.50;;;;;16.13;100.00;102082.38;2093796;28;46687;-69
2024/01/30 00:31:35;;;;;;;;;26.00;25.75;;;;;16.08;100.00;102084.28;2093829;28;46756;-69
2024/01/30 00:32:35;;;;;;;;;25.75;25.75;;;;;16.05;100.00;102087.03;2094972;28;46592;-69
2024/01/30 00:33:35;;;;;;;;;22.50;20.00;;;;;16.05;100.00;102087.91;2095693;28;46087;-69
2024/01/30 00:34:36;;;;;;;;;24.00;24.00;;;;;16.13;100.00;102093.09;2095760;28;46988;-69
2024/01/30 00:35:36;;;;;;;;;23.75;22.50;;;;;16.07;100.00;102095.91;2095635;28;45803;-70
2024/01/30 00:36:37;;;;;;;;;25.00;24.00;;;;;16.14;100.00;102087.72;2095442;28;46515;-69
2024/01/30 00:37:37;;;;;;;;;23.50;23.50;;;;;16.12;100.00;102094.88;2095488;28;46894;-69
2024/01/30 00:38:37;;;;;;;;;24.00;24.00;;;;;16.11;100.00;102093.13;2095319;28;46000;-69
2024/01/30 00:39:38;;;;;;;;;21.75;20.00;;;;;16.11;100.00;102092.25;2095277;28;46511;-69
2024/01/30 00:40:38;;;;;;;;;23.25;23.25;;;;;16.09;100.00;102097.63;2094728;28;46297;-69
2024/01/30 00:41:39;;;;;;;;;26.50;24.75;;;;;16.05;100.00;102092.41;2095523;28;46804;-69
2024/01/30 00:42:39;;;;;;;;;28.75;24.25;;;;;16.07;100.00;102094.13;2095944;28;45367;-69
2024/01/30 00:43:39;;;;;;;;;24.75;22.75;;;;;16.02;100.00;102093.34;2096485;28;45071;-70
2024/01/30 00:44:40;;;;;;;;;23.25;23.25;;;;;16.00;100.00;102089.81;2095984;28;45229;-68
2024/01/30 00:45:40;;;;;;;;;28.25;26.00;;;;;16.07;100.00;102087.88;2086730;28;46465;-69
2024/01/30 00:46:40;;;;;;;;;23.50;22.50;;;;;16.05;100.00;102090.59;2094095;28;46546;-69
2024/01/30 00:47:41;;;;;;;;;24.75;24.75;;;;;16.04;100.00;102091.50;2095523;28;46595;-69
2024/01/30 00:48:41;;;;;;;;;25.00;22.50;;;;;16.03;100.00;102086.19;2094212;28;46195;-69
2024/01/30 00:49:42;;;;;;;;;26.50;25.50;;;;;15.98;100.00;102088.97;2095790;28;46406;-69
2024/01/30 00:50:42;;;;;;;;;23.75;21.25;;;;;16.07;100.00;102088.75;2095746;28;46814;-71
2024/01/30 00:51:42;;;;;;;;;26.00;23.75;;;;;16.10;100.00;102095.84;2095176;28;46307;-69
2024/01/30 00:52:44;;;;;;;;;23.25;22.25;;;;;16.03;100.00;102096.91;2095519;28;47068;-70
2024/01/30 00:53:45;;;;;;;;;26.20;24.80;;;;;16.03;100.00;102095.13;2103442;28;46807;-69
2024/01/30 00:54:45;;;;;;;;;27.00;25.75;;;;;15.95;100.00;102091.72;2103585;28;45548;-69
2024/01/30 00:55:46;;;;;;;;;25.25;24.25;;;;;15.98;100.00;102090.75;2095581;28;46271;-69
2024/01/30 00:56:46;;;;;;;;;23.00;22.50;;;;;16.05;100.00;102097.75;2095906;28;47513;-68
2024/01/30 00:57:47;;;;;;;;;21.00;21.00;;;;;16.06;100.00;102094.16;2095378;28;46677;-70
2024/01/30 00:58:47;;;;;;;;;24.25;23.75;;;;;16.10;100.00;102086.00;2095455;28;47022;-70
2024/01/30 00:59:47;;;;;;;;;22.75;20.50;;;;;16.09;100.00;102086.03;2095430;28;46655;-69
2024/01/30 01:00:48;;;;;;;;;21.50;21.50;;;;;16.16;100.00;102090.34;2095497;28;47619;-70
2024/01/30 01:01:48;;;;;;;;;24.00;23.50;;;;;16.07;100.00;102096.78;2095532;28;46831;-69
2024/01/30 01:02:48;;;;;;;;;25.00;25.00;;;;;16.05;100.00;102095.94;2094965;28;46964;-70
2024/01/30 01:03:49;;;;;;;;;23.25;22.75;;;;;16.05;100.00;102093.28;2094905;28;46499;-69
2024/01/30 01:04:49;;;;;;;;;24.25;24.25;;;;;16.04;100.00;102086.16;2095208;28;46331;-70
2024/01/30 01:05:50;;;;;;;;;23.25;22.25;;;;;16.03;100.00;102091.56;2095272;28;46327;-69
2024/01/30 01:06:50;;;;;;;;;23.75;23.00;;;;;16.03;100.00;102092.44;2094294;28;46649;-69
2024/01/30 01:07:51;;;;;;;;;23.25;22.75;;;;;15.97;100.00;102091.66;2095655;28;46876;-69
2024/01/30 01:08:51;;;;;;;;;19.50;19.50;;;;;16.10;100.00;102093.16;2095610;28;45593;-70
2024/01/30 01:09:51;;;;;;;;;21.00;20.00;;;;;16.08;100.00;102084.28;2095454;28;46270;-68
2024/01/30 01:10:52;;;;;;;;;22.75;21.00;;;;;16.10;100.00;102085.13;2095391;28;46745;-69
2024/01/30 01:11:52;;;;;;;;;21.25;20.00;;;;;16.11;100.00;102092.25;2095859;28;46687;-70
2024/01/30 01:12:52;;;;;;;;;22.25;21.50;;;;;16.12;100.00;102088.66;2094662;28;46321;-69
2024/01/30 01:13:53;;;;;;;;;23.00;22.50;;;;;16.17;100.00;102093.00;2094422;28;46621;-69
2024/01/30 01:14:53;;;;;;;;;27.50;24.50;;;;;16.20;100.00;102097.41;2095035;28;45809;-70
2024/01/30 01:15:53;;;;;;;;;18.50;18.25;;;;;16.18;100.00;102091.19;2095307;28;46243;-68
2024/01/30 01:16:54;;;;;;;;;23.25;21.75;;;;;16.19;100.00;102099.19;2095444;28;45931;-69
2024/01/30 01:17:54;;;;;;;;;21.00;21.00;;;;;16.14;100.00;102092.19;2095159;28;46374;-69
2024/01/30 01:18:55;;;;;;;;;21.50;21.25;;;;;16.15;100.00;102091.28;2094794;28;46584;-69
2024/01/30 01:19:55;;;;;;;;;23.50;23.25;;;;;16.18;100.00;102093.88;2095700;28;45552;-69
2024/01/30 01:20:55;;;;;;;;;24.00;22.25;;;;;16.18;100.00;102088.53;2094578;28;46360;-70
2024/01/30 01:21:56;;;;;;;;;25.50;23.25;;;;;16.20;100.00;102086.69;2094352;28;45887;-68
2024/01/30 01:22:56;;;;;;;;;23.50;21.75;;;;;16.24;100.00;102084.81;2095478;28;45317;-70
2024/01/30 01:23:56;;;;;;;;;22.50;20.75;;;;;16.27;100.00;102082.09;2094182;28;46712;-69
2024/01/30 01:24:57;;;;;;;;;25.25;24.75;;;;;16.25;100.00;102087.44;2094876;28;46661;-69
2024/01/30 01:25:59;;;;;;;;;28.75;24.50;;;;;16.28;100.00;102084.72;2095012;28;46183;-68
2024/01/30 01:26:59;;;;;;;;;37.60;33.40;;;;;16.26;100.00;102082.97;2094820;28;46660;-69
2024/01/30 01:28:01;;;;;;;;;39.50;34.25;;;;;16.29;100.00;102078.44;2095305;28;46621;-68
2024/01/30 01:29:02;;;;;;;;;28.60;27.20;;;;;16.28;100.00;102081.16;2094939;28;47007;-70
2024/01/30 01:30:05;;;;;;;;;32.20;28.40;;;;;16.27;100.00;102087.44;2095225;28;46877;-69
2024/01/30 01:31:06;;;;;;;;;28.80;26.60;;;;;16.27;100.00;102084.75;2085988;28;45863;-70
2024/01/30 01:32:06;;;;;;;;;20.00;19.00;;;;;16.25;100.00;102087.44;2085183;28;46658;-70
2024/01/30 01:33:07;;;;;;;;;25.50;25.50;;;;;16.28;100.00;102091.88;2095259;28;47031;-69
2024/01/30 01:34:07;;;;;;;;;26.75;25.75;;;;;16.26;100.00;102086.56;2094035;28;46480;-69
2024/01/30 01:35:08;;;;;;;;;25.75;25.75;;;;;16.28;100.00;102089.19;2094434;28;46560;-68
2024/01/30 01:36:08;;;;;;;;;26.25;25.25;;;;;16.24;100.00;102088.38;2095343;28;46404;-70
2024/01/30 01:37:08;;;;;;;;;20.00;20.00;;;;;16.22;100.00;102092.88;2094935;28;46033;-68
2024/01/30 01:38:09;;;;;;;;;21.50;20.25;;;;;16.26;100.00;102091.00;2095431;28;46499;-68
2024/01/30 01:39:10;;;;;;;;;25.25;22.50;;;;;16.27;100.00;102088.31;2094274;28;46575;-69
2024/01/30 01:40:11;;;;;;;;;21.75;21.75;;;;;16.28;100.00;102092.75;2094307;28;47304;-68
2024/01/30 01:41:11;;;;;;;;;22.75;20.50;;;;;16.28;100.00;102092.75;2094900;28;46497;-69
2024/01/30 01:42:11;;;;;;;;;24.25;23.75;;;;;16.23;100.00;102091.09;2095069;28;46824;-68
2024/01/30 01:43:12;;;;;;;;;19.50;19.50;;;;;16.25;100.00;102087.44;2094985;28;46576;-69
2024/01/30 01:44:12;;;;;;;;;25.50;23.25;;;;;16.25;100.00;102089.25;2095488;28;46842;-69
2024/01/30 01:45:12;;;;;;;;;22.25;22.00;;;;;16.24;100.00;102082.13;2095072;28;46273;-68
2024/01/30 01:46:13;;;;;;;;;22.50;22.00;;;;;16.19;100.00;102085.81;2090344;28;46356;-69
2024/01/30 01:47:14;;;;;;;;;19.00;19.00;;;;;16.20;100.00;102089.38;2089650;28;46723;-69
2024/01/30 01:48:15;;;;;;;;;21.80;20.60;;;;;16.20;100.00;102081.31;2095562;28;45121;-68
2024/01/30 01:49:15;;;;;;;;;23.75;22.50;;;;;16.19;100.00;102084.94;2095051;28;46946;-69
2024/01/30 01:50:19;;;;;;;;;22.75;22.00;;;;;16.18;100.00;102080.50;2095150;28;45436;-68
2024/01/30 01:51:21;;;;;;;;;25.20;23.40;;;;;16.15;100.00;102083.25;2094890;28;46913;-68
2024/01/30 01:52:21;;;;;;;;;22.20;21.00;;;;;16.13;100.00;102077.94;2095338;28;46986;-69
2024/01/30 01:53:22;;;;;;;;;22.75;21.25;;;;;16.22;100.00;102081.28;2095001;28;47644;-69
2024/01/30 01:54:25;;;;;;;;;20.75;20.25;;;;;16.20;100.00;102081.31;2095043;28;46646;-68
2024/01/30 01:55:27;;;;;;;;;23.20;21.60;;;;;16.21;100.00;102082.22;2095239;28;46657;-68
2024/01/30 01:56:29;;;;;;;;;18.80;17.40;;;;;16.23;100.00;102085.72;2094547;28;46396;-69
2024/01/30 01:57:29;;;;;;;;;17.60;17.60;;;;;16.21;100.00;102083.09;2094095;28;46518;-69
2024/01/30 01:58:30;;;;;;;;;20.75;20.25;;;;;16.18;100.00;102076.00;2094538;28;46223;-67
2024/01/30 01:59:31;;;;;;;;;16.00;16.00;;;;;16.15;100.00;102078.78;2094853;28;45626;-70
2024/01/30 02:00:31;;;;;;;;;17.50;17.00;;;;;16.17;100.00;102079.59;2095471;28;46327;-70
2024/01/30 02:01:32;;;;;;;;;18.75;18.75;;;;;16.19;100.00;102077.78;2094484;28;46281;-69
2024/01/30 02:02:35;;;;;;;;;23.80;18.00;;;;;16.14;100.00;102074.31;2095218;28;46463;-70
2024/01/30 02:03:37;;;;;;;;;18.80;18.20;;;;;16.15;100.00;102075.22;2095001;28;46020;-68
2024/01/30 02:04:37;;;;;;;;;19.80;17.40;;;;;16.25;100.00;102076.72;2094637;28;46980;-68
2024/01/30 02:05:39;;;;;;;;;17.00;17.00;;;;;16.24;100.00;102072.28;2094096;28;47336;-68
2024/01/30 02:06:39;;;;;;;;;23.20;20.60;;;;;16.27;100.00;102079.41;2094723;28;45655;-68
2024/01/30 02:07:40;;;;;;;;;17.75;17.75;;;;;16.24;100.00;102080.31;2095397;28;46729;-69
2024/01/30 02:08:41;;;;;;;;;20.20;19.00;;;;;16.23;100.00;102080.38;2095743;28;45716;-69
2024/01/30 02:09:42;;;;;;;;;20.25;18.50;;;;;16.22;100.00;102075.94;2095538;28;46715;-69
2024/01/30 02:10:42;;;;;;;;;21.00;20.00;;;;;16.07;100.00;102072.69;2095167;28;46272;-68
2024/01/30 02:11:42;;;;;;;;;18.25;16.50;;;;;16.07;100.00;102083.41;2094799;28;46527;-68
2024/01/30 02:12:43;;;;;;;;;17.75;16.25;;;;;15.96;100.00;102077.41;2097633;28;46092;-68
2024/01/30 02:13:43;;;;;;;;;20.00;17.00;;;;;16.09;100.00;102075.34;2095521;28;46430;-68
2024/01/30 02:14:47;;;;;;;;;16.75;16.75;;;;;16.12;100.00;102080.59;2095761;28;46124;-68
2024/01/30 02:15:51;;;;;;;;;18.00;17.60;;;;;15.97;100.00;102086.31;2094458;28;45850;-69
2024/01/30 02:16:51;;;;;;;;;17.80;16.20;;;;;16.04;100.00;102075.44;2094987;28;46850;-68
2024/01/30 02:17:52;;;;;;;;;15.00;13.75;;;;;16.04;100.00;102082.59;2095019;28;46160;-69
2024/01/30 02:18:52;;;;;;;;;15.75;15.75;;;;;16.02;100.00;102087.13;2095175;28;47145;-69
2024/01/30 02:19:52;;;;;;;;;19.75;18.50;;;;;16.02;100.00;102079.09;2094678;28;46840;-68
2024/01/30 02:20:55;;;;;;;;;18.00;18.00;;;;;15.94;100.00;102073.88;2094697;28;46077;-69
2024/01/30 02:21:56;;;;;;;;;17.00;15.60;;;;;16.06;100.00;102080.78;2094406;28;46256;-67
2024/01/30 02:23:01;;;;;;;;;19.50;18.75;;;;;16.07;100.00;102077.16;2094560;28;46936;-68
2024/01/30 02:24:03;;;;;;;;;22.00;19.80;;;;;16.08;100.00;102077.13;2095108;28;46817;-70
2024/01/30 02:25:04;;;;;;;;;20.00;18.60;;;;;16.08;100.00;102073.56;2094994;28;47170;-68
2024/01/30 02:26:04;;;;;;;;;17.00;17.00;;;;;16.05;100.00;102071.84;2096402;28;46047;-68
2024/01/30 02:27:04;;;;;;;;;17.75;17.50;;;;;16.05;100.00;102065.63;2095864;28;46607;-69
2024/01/30 02:28:05;;;;;;;;;18.50;18.50;;;;;16.06;100.00;102070.06;2095310;28;46961;-68
2024/01/30 02:29:05;;;;;;;;;17.00;16.25;;;;;16.07;100.00;102063.78;2093844;28;46375;-70
2024/01/30 02:30:06;;;;;;;;;20.50;20.50;;;;;16.07;100.00;102066.47;2096650;28;46509;-68
2024/01/30 02:31:07;;;;;;;;;17.25;17.00;;;;;16.07;100.00;102061.97;2094785;28;45747;-68
2024/01/30 02:32:07;;;;;;;;;16.75;16.75;;;;;16.08;100.00;102066.41;2087137;28;45991;-68
2024/01/30 02:33:07;;;;;;;;;17.00;15.75;;;;;16.08;100.00;102066.41;2095963;28;46885;-68
2024/01/30 02:34:08;;;;;;;;;18.75;18.75;;;;;16.09;100.00;102059.25;2085586;28;47409;-69
2024/01/30 02:35:08;;;;;;;;;17.33;16.67;;;;;16.08;100.00;102061.06;2087269;28;45615;-69
2024/01/30 02:36:08;;;;;;;;;18.00;17.67;;;;;16.09;100.00;102061.94;2096116;28;46208;-69
2024/01/30 02:37:09;;;;;;;;;18.00;15.33;;;;;16.09;100.00;102052.13;2095876;28;46548;-69
2024/01/30 02:38:09;;;;;;;;;13.00;12.00;;;;;16.08;100.00;102055.72;2096821;28;46349;-69
2024/01/30 02:39:09;;;;;;;;;15.00;15.00;;;;;15.87;100.00;102057.06;2096208;28;46441;-69
2024/01/30 02:40:10;;;;;;;;;14.67;14.67;;;;;15.82;100.00;102058.97;2094219;28;45794;-68
2024/01/30 02:41:10;;;;;;;;;14.67;14.67;;;;;15.94;100.00;102060.50;2095302;28;46427;-69
2024/01/30 02:42:10;;;;;;;;;14.00;13.67;;;;;15.87;100.00;102056.19;2091626;28;46082;-69
2024/01/30 02:43:11;;;;;;;;;16.33;16.33;;;;;15.88;100.00;102058.84;2090872;28;46383;-69
2024/01/30 02:44:12;;;;;;;;;18.00;15.75;;;;;15.97;100.00;102062.22;2096655;28;47839;-68
2024/01/30 02:45:13;;;;;;;;;16.67;15.67;;;;;15.97;100.00;102067.56;2095039;28;46433;-68
2024/01/30 02:46:13;;;;;;;;;19.00;19.00;;;;;15.93;100.00;102069.44;2097077;28;45516;-69
2024/01/30 02:47:13;;;;;;;;;19.25;18.25;;;;;15.94;100.00;102057.81;2095831;28;45575;-69
2024/01/30 02:48:14;;;;;;;;;18.33;18.00;;;;;15.96;100.00;102061.34;2095160;28;46013;-69
2024/01/30 02:49:14;;;;;;;;;16.33;15.67;;;;;15.96;100.00;102069.38;2095723;28;46872;-68
2024/01/30 02:50:16;;;;;;;;;15.00;14.33;;;;;15.95;100.00;102069.41;2095537;28;46144;-69
2024/01/30 02:51:16;;;;;;;;;15.50;15.00;;;;;15.78;100.00;102072.47;2095326;28;45462;-68
2024/01/30 02:52:17;;;;;;;;;15.67;15.67;;;;;15.89;100.00;102078.47;2094724;28;46560;-69
2024/01/30 02:53:17;;;;;;;;;18.00;18.00;;;;;15.87;100.00;102072.25;2094975;28;46581;-68
2024/01/30 02:54:17;;;;;;;;;17.33;17.33;;;;;15.85;100.00;102074.09;2086764;28;46249;-68
2024/01/30 02:55:18;;;;;;;;;18.00;16.33;;;;;15.81;100.00;102073.28;2087395;28;45627;-69
2024/01/30 02:56:18;;;;;;;;;13.67;13.33;;;;;15.80;100.00;102065.28;2095226;28;46173;-69
2024/01/30 02:57:19;;;;;;;;;14.00;14.00;;;;;15.87;100.00;102066.91;2095500;28;45728;-69
2024/01/30 02:58:19;;;;;;;;;16.67;16.33;;;;;15.85;100.00;102068.72;2095617;28;46634;-68
2024/01/30 02:59:19;;;;;;;;;16.67;16.67;;;;;15.87;100.00;102069.56;2095476;28;46781;-68
2024/01/30 03:00:20;;;;;;;;;16.00;16.00;;;;;15.93;100.00;102066.78;2095619;28;45348;-68
2024/01/30 03:01:20;;;;;;;;;16.00;15.33;;;;;15.88;100.00;102058.84;2095561;28;46514;-68
2024/01/30 03:02:21;;;;;;;;;16.00;16.00;;;;;15.90;100.00;102053.47;2094261;28;46251;-69
2024/01/30 03:03:21;;;;;;;;;14.67;14.33;;;;;15.93;100.00;102060.53;2096015;28;45000;-69
2024/01/30 03:04:21;;;;;;;;;14.67;14.67;;;;;15.92;100.00;102059.66;2095708;28;46316;-68
2024/01/30 03:05:22;;;;;;;;;15.67;15.00;;;;;15.94;100.00;102062.31;2095631;28;46618;-68
2024/01/30 03:06:22;;;;;;;;;17.00;14.00;;;;;15.96;100.00;102052.44;2095289;28;46595;-67
2024/01/30 03:07:23;;;;;;;;;12.00;11.00;;;;;15.95;100.00;102059.59;2095258;28;46575;-69
2024/01/30 03:08:23;;;;;;;;;12.67;12.00;;;;;15.97;100.00;102056.88;2095014;28;46240;-68
2024/01/30 03:09:23;;;;;;;;;11.33;11.33;;;;;15.98;100.00;102058.63;2095272;28;46209;-68
2024/01/30 03:10:24;;;;;;;;;18.00;15.33;;;;;15.97;100.00;102065.78;2095473;28;46620;-68
2024/01/30 03:11:24;;;;;;;;;16.00;14.67;;;;;15.99;100.00;102061.25;2094441;28;46317;-67
2024/01/30 03:12:24;;;;;;;;;17.00;15.00;;;;;15.97;100.00;102062.22;2095367;28;46540;-69
2024/01/30 03:13:25;;;;;;;;;16.00;16.00;;;;;15.97;100.00;102063.09;2094968;28;46427;-68
2024/01/30 03:14:25;;;;;;;;;13.00;13.00;;;;;15.97;100.00;102068.47;2095342;28;46608;-69
2024/01/30 03:15:25;;;;;;;;;20.00;16.67;;;;;16.01;100.00;102066.63;2095224;28;47146;-68
2024/01/30 03:16:26;;;;;;;;;14.33;14.00;;;;;16.01;100.00;102059.47;2095055;28;45841;-68
2024/01/30 03:17:26;;;;;;;;;14.00;12.67;;;;;15.99;100.00;102066.63;2094977;28;46993;-68
2024/01/30 03:18:26;;;;;;;;;15.00;15.00;;;;;15.99;100.00;102071.09;2095462;28;46499;-69
2024/01/30 03:19:27;;;;;;;;;15.67;14.67;;;;;15.97;100.00;102062.22;2093851;28;46459;-69
2024/01/30 03:20:27;;;;;;;;;17.00;15.33;;;;;15.94;100.00;102065.84;2095724;28;46373;-67
2024/01/30 03:21:27;;;;;;;;;14.67;14.67;;;;;15.92;100.00;102069.50;2096035;28;45545;-68
2024/01/30 03:22:28;;;;;;;;;10.00;10.00;;;;;15.80;100.00;102068.84;2095976;28;45725;-68
2024/01/30 03:23:28;;;;;;;;;14.00;13.00;;;;;15.62;100.00;102065.66;2096010;28;46248;-69
2024/01/30 03:24:28;;;;;;;;;15.67;14.67;;;;;15.57;100.00;102066.63;2096157;28;46718;-68
2024/01/30 03:25:29;;;;;;;;;15.33;15.33;;;;;15.77;100.00;102060.00;2095493;28;46442;-69
2024/01/30 03:26:29;;;;;;;;;15.33;15.33;;;;;15.78;100.00;102067.13;2095667;28;47044;-69
2024/01/30 03:27:29;;;;;;;;;14.33;14.00;;;;;15.74;100.00;102060.94;2095791;28;46510;-68
2024/01/30 03:28:29;;;;;;;;;16.00;14.67;;;;;15.71;100.00;102058.31;2094893;28;46690;-69
2024/01/30 03:29:30;;;;;;;;;16.33;15.67;;;;;15.73;100.00;102069.00;2096492;28;47175;-67
2024/01/30 03:30:30;;;;;;;;;15.00;13.00;;;;;15.66;100.00;102060.22;2095416;28;46093;-68
2024/01/30 03:31:30;;;;;;;;;13.00;13.00;;;;;15.68;100.00;102066.44;2096449;28;45630;-69
2024/01/30 03:32:31;;;;;;;;;13.33;12.33;;;;;15.67;100.00;102064.66;2096341;28;45490;-68
2024/01/30 03:33:31;;;;;;;;;16.00;16.00;;;;;15.68;100.00;102074.47;2094615;28;47045;-69
2024/01/30 03:34:31;;;;;;;;;15.67;13.33;;;;;15.70;100.00;102069.94;2094875;28;46527;-68
2024/01/30 03:35:32;;;;;;;;;16.00;14.33;;;;;15.70;100.00;102064.59;2095789;28;46753;-69
2024/01/30 03:36:34;;;;;;;;;13.33;13.33;;;;;15.73;100.00;102072.56;2095541;28;46648;-68
2024/01/30 03:37:34;;;;;;;;;16.00;14.75;;;;;15.67;100.00;102072.69;2095016;28;46503;-69
2024/01/30 03:38:34;;;;;;;;;15.33;13.67;;;;;15.72;100.00;102067.22;2095586;28;48132;-69
2024/01/30 03:39:36;;;;;;;;;13.67;11.00;;;;;15.77;100.00;102066.25;2095318;28;46227;-69
2024/01/30 03:40:36;;;;;;;;;17.50;16.50;;;;;15.79;100.00;102068.88;2096088;28;46254;-69
2024/01/30 03:41:37;;;;;;;;;13.33;13.33;;;;;15.75;100.00;102068.06;2094098;28;46420;-68
2024/01/30 03:42:37;;;;;;;;;13.67;13.33;;;;;15.73;100.00;102069.00;2094836;28;46651;-69
2024/01/30 03:43:37;;;;;;;;;13.33;13.33;;;;;15.72;100.00;102075.25;2095968;28;46245;-69
2024/01/30 03:44:38;;;;;;;;;13.00;13.00;;;;;15.74;100.00;102071.63;2096845;28;46797;-68
2024/01/30 03:45:38;;;;;;;;;15.00;14.00;;;;;15.68;100.00;102071.78;2096052;28;46662;-68
2024/01/30 03:46:38;;;;;;;;;15.33;15.33;;;;;15.72;100.00;102073.47;2095193;28;45749;-70
2024/01/30 03:47:39;;;;;;;;;15.67;14.67;;;;;15.53;100.00;102069.41;2085364;28;47609;-68
2024/01/30 03:48:39;;;;;;;;;16.33;14.33;;;;;15.58;100.00;102067.50;2086139;28;46639;-68
2024/01/30 03:49:40;;;;;;;;;13.33;12.33;;;;;15.57;100.00;102076.44;2095588;28;46314;-68
2024/01/30 03:50:40;;;;;;;;;13.00;13.00;;;;;15.55;100.00;102070.25;2095320;28;45114;-69
2024/01/30 03:51:41;;;;;;;;;13.67;13.67;;;;;15.54;100.00;102079.19;2095524;28;46287;-68
2024/01/30 03:52:41;;;;;;;;;17.33;14.67;;;;;15.52;100.00;102073.00;2096265;28;46341;-69
2024/01/30 03:53:46;;;;;;;;;15.00;13.00;;;;;15.56;100.00;102066.66;2096933;28;46307;-69
2024/01/30 03:54:46;;;;;;;;;17.25;13.75;;;;;15.57;100.00;102071.97;2095778;28;46426;-68
2024/01/30 03:55:46;;;;;;;;;13.67;13.00;;;;;15.53;100.00;102064.94;2096013;28;46864;-68
2024/01/30 03:56:47;;;;;;;;;13.33;12.67;;;;;15.52;100.00;102067.63;2095780;28;46212;-68
2024/01/30 03:57:47;;;;;;;;;13.67;13.33;;;;;15.53;100.00;102056.03;2095609;28;46470;-68
2024/01/30 03:58:47;;;;;;;;;11.33;11.00;;;;;15.55;100.00;102071.13;2096248;28;46973;-68
2024/01/30 03:59:48;;;;;;;;;12.67;12.67;;;;;15.56;100.00;102067.53;2095800;28;46115;-69
2024/01/30 04:00:48;;;;;;;;;14.33;14.33;;;;;15.59;100.00;102063.91;2096013;28;46267;-69
2024/01/30 04:01:49;;;;;;;;;16.33;15.67;;;;;15.51;100.00;102068.56;2096099;28;47527;-69
2024/01/30 04:02:51;;;;;;;;;13.50;12.25;;;;;15.54;100.00;102071.16;2095619;28;46535;-69
2024/01/30 04:03:51;;;;;;;;;12.00;12.00;;;;;15.54;100.00;102063.13;2095929;28;46590;-69
2024/01/30 04:04:51;;;;;;;;;12.33;12.33;;;;;15.56;100.00;102054.16;2094681;28;46176;-69
2024/01/30 04:05:52;;;;;;;;;15.33;14.33;;;;;15.47;100.00;102054.34;2095087;28;45224;-69
2024/01/30 04:06:53;;;;;;;;;13.75;13.75;;;;;15.47;100.00;102056.13;2095766;28;46356;-67
2024/01/30 04:07:53;;;;;;;;;16.00;13.67;;;;;15.45;100.00;102050.81;2095222;28;45659;-69
2024/01/30 04:08:53;;;;;;;;;14.33;12.67;;;;;15.46;100.00;102046.34;2096273;28;46557;-68
2024/01/30 04:09:54;;;;;;;;;13.00;13.00;;;;;15.48;100.00;102052.53;2094577;28;46429;-69
2024/01/30 04:10:54;;;;;;;;;14.00;14.00;;;;;15.48;100.00;102069.47;2094643;28;46327;-68
2024/01/30 04:11:54;;;;;;;;;12.33;12.00;;;;;15.50;100.00;102074.78;2096131;28;46479;-69
2024/01/30 04:12:55;;;;;;;;;13.33;11.00;;;;;15.51;100.00;102065.88;2095902;28;46285;-68
2024/01/30 04:13:55;;;;;;;;;14.00;13.00;;;;;15.54;100.00;102073.84;2096104;28;46766;-69
2024/01/30 04:14:56;;;;;;;;;14.33;12.67;;;;;15.53;100.00;102069.41;2095625;28;46293;-68
2024/01/30 04:15:56;;;;;;;;;12.67;12.33;;;;;15.53;100.00;102072.94;2095882;28;46181;-69
2024/01/30 04:16:56;;;;;;;;;12.00;12.00;;;;;15.52;100.00;102055.13;2095491;28;47261;-68
2024/01/30 04:18:00;;;;;;;;;11.67;11.67;;;;;15.52;100.00;102055.13;2096087;28;46284;-69
2024/01/30 04:19:00;;;;;;;;;12.75;12.75;;;;;15.48;100.00;102057.88;2095280;28;47034;-69
2024/01/30 04:20:00;;;;;;;;;14.67;12.67;;;;;15.51;100.00;102052.50;2096195;28;46618;-69
2024/01/30 04:21:01;;;;;;;;;14.33;13.00;;;;;15.61;100.00;102051.41;2095733;28;46181;-70
2024/01/30 04:22:01;;;;;;;;;12.67;12.67;;;;;15.68;100.00;102050.38;2095639;28;46475;-69
2024/01/30 04:23:01;;;;;;;;;13.33;11.00;;;;;15.70;100.00;102055.69;2094744;28;46458;-69
2024/01/30 04:24:02;;;;;;;;;12.67;11.00;;;;;15.76;100.00;102055.56;2095550;28;46622;-68
2024/01/30 04:25:02;;;;;;;;;13.00;13.00;;;;;15.74;100.00;102052.91;2095594;28;46486;-69
2024/01/30 04:26:03;;;;;;;;;15.33;14.67;;;;;15.72;100.00;102053.84;2094872;28;46438;-70
2024/01/30 04:27:04;;;;;;;;;11.67;11.67;;;;;15.71;100.00;102049.41;2094905;28;46307;-69
2024/01/30 04:28:04;;;;;;;;;13.33;11.67;;;;;15.72;100.00;102048.50;2094623;28;45483;-69
2024/01/30 04:29:04;;;;;;;;;14.33;14.33;;;;;15.68;100.00;102047.69;2094363;28;45642;-69
2024/01/30 04:30:05;;;;;;;;;13.33;13.00;;;;;15.66;100.00;102051.31;2095557;28;45702;-70
2024/01/30 04:31:05;;;;;;;;;14.00;12.00;;;;;15.56;100.00;102051.47;2095462;28;46455;-69
2024/01/30 04:32:06;;;;;;;;;15.67;15.00;;;;;15.54;100.00;102047.06;2095051;28;46200;-70